Time;durP1;ratioP1;P1;durP2;ratioP2;P2;SDS_P1;SDS_P2;PMS_P1;PMS_P2;Temp;Humidity;BMP_temperature;BMP_pressure;BME280_temperature;BME280_humidity;BME280_pressure;Samples;Min_cycle;Max_cycle;Signal;HPM_P1;HPM_P2
2023/10/16 00:00:40;;;;;;;;;;;;;;;6.08;100.00;102343.34;5050089;28;1205;-77
2023/10/16 00:03:06;;;;;;;;;;;;;;;6.05;100.00;102343.44;5049267;28;1097;-77
2023/10/16 00:05:38;;;;;;;;;;;;;;;6.02;100.00;102344.41;5048077;28;1172;-77
2023/10/16 00:08:06;;;;;;;;;;;;;;;6.00;100.00;102345.38;5064611;28;1898;-77
2023/10/16 00:10:32;;;;;;;;;;;;;;;6.00;100.00;102335.06;5053365;28;1404;-77
2023/10/16 00:13:03;;;;;;;;;;;;;;;6.00;100.00;102332.47;5055103;28;1074;-77
2023/10/16 00:15:29;;;;;;;;;;;;;;;6.00;100.00;102335.06;5048998;28;1206;-78
2023/10/16 00:17:56;;;;;;;;;;;;;;;5.99;100.00;102333.38;5053081;28;1108;-77
2023/10/16 00:20:25;;;;;;;;;;;;;;;5.98;100.00;102337.69;5046016;28;1124;-77
2023/10/16 00:22:50;;;;;;;;;;;;;;;5.96;100.00;102343.78;5055809;28;1182;-78
2023/10/16 00:25:16;;;;;;;;;;;;;;;5.97;100.00;102340.34;5056071;28;1355;-77
2023/10/16 00:27:41;;;;;;;;;;;;;;;5.96;100.00;102338.63;5054773;28;1968;-77
2023/10/16 00:30:08;;;;;;;;;;;;;;;5.96;100.00;102343.78;5054693;28;1191;-76
2023/10/16 00:32:36;;;;;;;;;;;;;;;5.97;100.00;102340.34;5053952;28;1091;-76
2023/10/16 00:35:03;;;;;;;;;;;;;;;5.95;100.00;102342.97;5049934;28;1288;-77
2023/10/16 00:37:28;;;;;;;;;;;;;;;5.98;100.00;102347.16;5048144;28;1082;-77
2023/10/16 00:39:53;;;;;;;;;;;;;;;5.98;100.00;102347.16;5050237;28;1171;-77
2023/10/16 00:42:18;;;;;;;;;;;;;;;5.98;100.00;102336.88;5060494;28;1362;-77
2023/10/16 00:44:43;;;;;;;;;;;;;;;6.00;100.00;102335.06;5053086;28;1453;-78
2023/10/16 00:47:09;;;;;;;;;;;;;;;6.02;100.00;102338.41;5042564;28;1902;-77
2023/10/16 00:49:35;;;;;;;;;;;;;;;6.03;100.00;102338.38;5051575;28;1111;-78
2023/10/16 00:52:03;;;;;;;;;;;;;;;6.05;100.00;102338.31;5053011;28;1064;-77
2023/10/16 00:54:31;;;;;;;;;;;;;;;6.07;100.00;102331.34;5046305;28;1206;-76
2023/10/16 00:57:00;;;;;;;;;;;;;;;6.08;100.00;102325.31;5049183;28;1002;-77
2023/10/16 00:59:25;;;;;;;;;;;;;;;6.10;100.00;102332.06;5046033;28;1130;-77
2023/10/16 01:02:14;;;;;;;;;;;;;;;6.12;100.00;102329.44;5042716;28;1234;-77
2023/10/16 01:04:40;;;;;;;;;;;;;;;6.14;100.00;102332.81;5046239;28;1234;-78
2023/10/16 01:07:06;;;;;;;;;;;;;;;6.17;100.00;102331.84;5049118;28;2074;-77
2023/10/16 01:09:35;;;;;;;;;;;;;;;6.19;100.00;102330.88;5048962;28;1166;-77
2023/10/16 01:12:02;;;;;;;;;;;;;;;6.21;100.00;102326.50;5043890;28;1328;-77
2023/10/16 01:14:29;;;;;;;;;;;;;;;6.22;100.00;102328.19;5063547;28;1425;-77
2023/10/16 01:16:54;;;;;;;;;;;;;;;6.23;100.00;102318.72;5043902;28;1068;-78
2023/10/16 01:19:19;;;;;;;;;;;;;;;6.25;100.00;102312.63;5047431;28;1116;-77
2023/10/16 01:21:46;;;;;;;;;;;;;;;6.24;100.00;102308.34;5043180;28;1055;-77
2023/10/16 01:24:14;;;;;;;;;;;;;;;6.26;100.00;102305.72;5069467;28;1305;-78
2023/10/16 01:26:43;;;;;;;;;;;;;;;6.24;100.00;102305.75;5049757;28;1166;-78
2023/10/16 01:29:09;;;;;;;;;;;;;;;6.23;100.00;102313.56;5045826;28;1902;-77
2023/10/16 01:31:36;;;;;;;;;;;;;;;6.20;100.00;102301.66;5054107;28;1086;-78
2023/10/16 01:34:01;;;;;;;;;;;;;;;6.19;100.00;102310.25;5055022;22;1750;-78
2023/10/16 01:36:26;;;;;;;;;;;;;;;6.19;100.00;102294.78;5047863;28;1114;-79
2023/10/16 01:38:51;;;;;;;;;;;;;;;6.19;100.00;102294.78;5043214;28;1186;-78
2023/10/16 01:41:18;;;;;;;;;;;;;;;6.20;100.00;102300.81;5042939;28;1214;-78
2023/10/16 01:43:44;;;;;;;;;;;;;;;6.18;100.00;102300.84;5049612;28;1335;-78
2023/10/16 01:46:12;;;;;;;;;;;;;;;6.17;100.00;102312.06;5049769;28;1290;-79
2023/10/16 01:48:42;;;;;;;;;;;;;;;6.16;100.00;102305.25;5041698;28;1969;-78
2023/10/16 01:51:19;;;;;;;;;;;;;;;6.14;100.00;102304.47;5044140;28;1141;-78
2023/10/16 01:53:44;;;;;;;;;;;;;;;6.14;100.00;102312.19;5041918;28;1113;-78
2023/10/16 01:56:12;;;;;;;;;;;;;;;6.14;100.00;102301.91;5048258;28;1137;-78
2023/10/16 01:58:47;;;;;;;;;;;;;;;6.14;100.00;102291.59;5044665;28;1207;-78
2023/10/16 02:01:14;;;;;;;;;;;;;;;6.14;100.00;102296.75;5065474;28;1209;-78
2023/10/16 02:03:44;;;;;;;;;;;;;;;6.14;100.00;102294.16;5045779;28;1090;-78
2023/10/16 02:06:11;;;;;;;;;;;;;;;6.15;100.00;102288.09;5050130;28;1199;-78
2023/10/16 02:08:36;;;;;;;;;;;;;;;6.16;100.00;102294.09;5044077;28;1963;-78
2023/10/16 02:11:02;;;;;;;;;;;;;;;6.17;100.00;102296.59;5046243;28;1072;-78
2023/10/16 02:13:27;;;;;;;;;;;;;;;6.16;100.00;102294.94;5053979;28;1249;-78
2023/10/16 02:15:52;;;;;;;;;;;;;;;6.16;100.00;102294.09;5044176;28;1249;-78
2023/10/16 02:18:23;;;;;;;;;;;;;;;6.15;100.00;102288.09;5051313;28;1118;-78
2023/10/16 02:20:49;;;;;;;;;;;;;;;6.17;100.00;102286.31;5054011;28;1061;-78
2023/10/16 02:23:15;;;;;;;;;;;;;;;6.18;100.00;102287.97;5050658;28;1059;-78
2023/10/16 02:25:41;;;;;;;;;;;;;;;6.17;100.00;102281.16;5055469;28;1153;-78
2023/10/16 02:28:07;;;;;;;;;;;;;;;6.15;100.00;102277.81;5053841;28;1902;-78
2023/10/16 02:30:36;;;;;;;;;;;;;;;6.16;100.00;102283.78;5053719;28;1271;-78
2023/10/16 02:35:53;;;;;;;;;;;;;;;6.13;100.00;102275.28;5046242;28;1114;-79
2023/10/16 02:38:27;;;;;;;;;;;;;;;6.12;100.00;102272.75;5042856;28;1155;-78
2023/10/16 02:40:53;;;;;;;;;;;;;;;6.12;100.00;102275.34;5048742;28;1389;-78
2023/10/16 02:43:20;;;;;;;;;;;;;;;6.11;100.00;102276.25;5048639;28;1199;-78
2023/10/16 02:45:47;;;;;;;;;;;;;;;6.09;100.00;102278.88;5057972;28;1135;-78
2023/10/16 02:48:16;;;;;;;;;;;;;;;6.08;100.00;102276.38;5048072;28;1890;-79
2023/10/16 02:50:42;;;;;;;;;;;;;;;6.05;100.00;102267.03;5044551;28;1236;-78
2023/10/16 02:53:08;;;;;;;;;;;;;;;6.05;100.00;102272.16;5049247;28;1014;-80
2023/10/16 02:55:33;;;;;;;;;;;;;;;6.05;100.00;102281.63;5046418;28;1449;-78
2023/10/16 02:58:04;;;;;;;;;;;;;;;6.03;100.00;102281.72;5051959;28;1150;-79
2023/10/16 03:00:34;;;;;;;;;;;;;;;6.05;100.00;102281.63;5046900;28;1720;-80
2023/10/16 03:02:59;;;;;;;;;;;;;;;6.05;100.00;102279.06;5054791;28;1053;-79
2023/10/16 03:05:26;;;;;;;;;;;;;;;6.05;100.00;102277.31;5044922;28;1105;-78
2023/10/16 03:07:52;;;;;;;;;;;;;;;6.06;100.00;102273.00;5047258;28;1901;-78
2023/10/16 03:10:17;;;;;;;;;;;;;;;6.09;100.00;102278.06;5051028;28;1085;-78
2023/10/16 03:12:43;;;;;;;;;;;;;;;6.11;100.00;102276.25;5053501;28;1134;-79
2023/10/16 03:15:20;;;;;;;;;;;;;;;6.12;100.00;102285.63;5063241;28;1394;-78
2023/10/16 03:17:51;;;;;;;;;;;;;;;6.13;100.00;102279.59;5069922;28;984;-78
2023/10/16 03:20:21;;;;;;;;;;;;;;;6.15;100.00;102277.81;5070846;28;1061;-80
2023/10/16 03:22:47;;;;;;;;;;;;;;;6.17;100.00;102273.41;5067590;28;1108;-80
2023/10/16 03:25:25;;;;;;;;;;;;;;;6.19;100.00;102281.91;5069326;28;1020;-79
2023/10/16 03:27:50;;;;;;;;;;;;;;;6.18;100.00;102277.66;5075199;28;1922;-80
2023/10/16 03:30:17;;;;;;;;;;;;;;;6.20;100.00;102272.47;5072789;28;1219;-79
2023/10/16 03:32:42;;;;;;;;;;;;;;;6.20;100.00;102270.75;5069500;28;1526;-79
2023/10/16 03:35:09;;;;;;;;;;;;;;;6.22;100.00;102276.66;5056162;28;1037;-78
2023/10/16 03:37:35;;;;;;;;;;;;;;;6.23;100.00;102274.91;5049459;28;1195;-79
2023/10/16 03:40:07;;;;;;;;;;;;;;;6.22;100.00;102274.06;5045635;28;1059;-78
2023/10/16 03:42:32;;;;;;;;;;;;;;;6.21;100.00;102269.84;5045170;28;1382;-78
2023/10/16 03:45:01;;;;;;;;;;;;;;;6.22;100.00;102268.94;5048987;28;1417;-78
2023/10/16 03:47:27;;;;;;;;;;;;;;;6.21;100.00;102263.84;5042259;28;1965;-78
2023/10/16 03:49:52;;;;;;;;;;;;;;;6.21;100.00;102267.25;5043250;28;1090;-78
2023/10/16 03:52:17;;;;;;;;;;;;;;;6.18;100.00;102269.94;5046552;28;1264;-78
2023/10/16 03:54:43;;;;;;;;;;;;;;;6.20;100.00;102270.75;5041634;28;1200;-79
2023/10/16 03:57:11;;;;;;;;;;;;;;;6.18;100.00;102267.38;5050164;28;1143;-79
2023/10/16 03:59:38;;;;;;;;;;;;;;;6.16;100.00;102264.03;5048428;28;1457;-79
2023/10/16 04:02:04;;;;;;;;;;;;;;;6.15;100.00;102262.34;5041846;28;1219;-78
2023/10/16 04:04:29;;;;;;;;;;;;;;;6.12;100.00;102257.31;5051032;28;1240;-78
2023/10/16 04:06:56;;;;;;;;;;;;;;;6.14;100.00;102260.69;5047736;28;1969;-79
2023/10/16 04:09:21;;;;;;;;;;;;;;;6.13;100.00;102261.56;5048327;28;1293;-78
2023/10/16 04:11:54;;;;;;;;;;;;;;;6.12;100.00;102257.31;5051185;28;1204;-78
2023/10/16 04:14:19;;;;;;;;;;;;;;;6.13;100.00;102258.97;5045630;28;1445;-78
2023/10/16 04:16:54;;;;;;;;;;;;;;;6.13;100.00;102264.13;5045158;28;1728;-79
2023/10/16 04:21:51;;;;;;;;;;;;;;;6.11;100.00;102260.78;5048482;28;1285;-78
2023/10/16 04:26:57;;;;;;;;;;;;;;;6.14;100.00;102250.38;5042770;28;1955;-78
2023/10/16 04:29:28;;;;;;;;;;;;;;;6.16;100.00;102251.13;5045451;28;1158;-78
2023/10/16 04:47:48;;;;;;;;;;;;;;;6.18;100.00;102233.88;5050692;28;1918;-78
2023/10/16 04:50:15;;;;;;;;;;;;;;;6.20;100.00;102236.41;5046050;28;1090;-78
2023/10/16 05:03:35;;;;;;;;;;;;;;;6.22;100.00;102232.84;5040651;28;1127;-79
2023/10/16 05:06:05;;;;;;;;;;;;;;;6.23;100.00;102229.38;5053313;28;1138;-78
2023/10/16 05:08:34;;;;;;;;;;;;;;;6.24;100.00;102235.38;5039198;28;1894;-78
2023/10/16 05:13:55;;;;;;;;;;;;;;;6.25;100.00;102230.16;5048867;28;1354;-78
2023/10/16 05:16:38;;;;;;;;;;;;;;;6.25;100.00;102226.72;5045909;28;1261;-78
2023/10/16 05:19:04;;;;;;;;;;;;;;;6.25;100.00;102225.03;5044987;28;1207;-78
2023/10/16 06:16:17;;;;;;;;;;;;;;;6.34;100.00;102229.78;5042639;28;1271;-78
2023/10/16 06:18:43;;;;;;;;;;;;;;;6.33;100.00;102225.53;5048643;28;1230;-78
2023/10/16 06:21:08;;;;;;;;;;;;;;;6.35;100.00;102231.44;5040950;28;1426;-78
2023/10/16 06:23:33;;;;;;;;;;;;;;;6.36;100.00;102225.38;5045727;28;1480;-78
2023/10/16 06:26:02;;;;;;;;;;;;;;;6.36;100.00;102235.69;5048170;28;1068;-78
2023/10/16 06:28:27;;;;;;;;;;;;;;;6.36;100.00;102235.69;5049864;28;1953;-78
2023/10/16 06:30:52;;;;;;;;;;;;;;;6.38;100.00;102233.06;5048197;28;1025;-78
2023/10/16 06:33:18;;;;;;;;;;;;;;;6.39;100.00;102235.59;5040912;28;1431;-78
2023/10/16 06:35:44;;;;;;;;;;;;;;;6.38;100.00;102223.59;5047496;28;1031;-78
2023/10/16 06:38:14;;;;;;;;;;;;;;;6.44;100.00;102237.13;5048022;28;1033;-78
2023/10/16 06:40:40;;;;;;;;;;;;;;;6.46;100.00;102240.47;5037087;28;1029;-78
2023/10/16 06:43:13;;;;;;;;;;;;;;;6.47;100.00;102237.81;5057739;28;1580;-78
2023/10/16 06:45:42;;;;;;;;;;;;;;;6.48;100.00;102239.53;5043094;28;1121;-79
2023/10/16 06:48:14;;;;;;;;;;;;;;;6.49;100.00;102236.03;5040433;28;1961;-79
2023/10/16 06:50:45;;;;;;;;;;;;;;;6.49;100.00;102240.38;5048510;28;1144;-78
2023/10/16 06:53:10;;;;;;;;;;;;;;;6.50;100.00;102242.03;5043916;28;1305;-78
2023/10/16 06:55:36;;;;;;;;;;;;;;;6.50;100.00;102242.03;5047572;28;1393;-78
2023/10/16 06:58:01;;;;;;;;;;;;;;;6.50;100.00;102247.19;5048310;28;1515;-78
2023/10/16 07:00:27;;;;;;;;;;;;;;;6.47;100.00;102242.16;5045210;28;1297;-78
2023/10/16 07:02:56;;;;;;;;;;;;;;;6.51;100.00;102243.69;5039094;28;1298;-79
2023/10/16 07:05:25;;;;;;;;;;;;;;;6.53;100.00;102231.56;5038297;28;1381;-78
2023/10/16 07:07:52;;;;;;;;;;;;;;;6.54;100.00;102243.59;5044083;28;1898;-79
2023/10/16 07:10:17;;;;;;;;;;;;;;;6.56;100.00;102241.78;5037569;28;1183;-78
2023/10/16 07:13:02;;;;;;;;;;;;;;;6.56;100.00;102241.78;5040970;28;1301;-78
2023/10/16 07:15:29;;;;;;;;;;;;;;;6.60;100.00;102245.91;5047663;28;1191;-78
2023/10/16 07:17:55;;;;;;;;;;;;;;;6.63;100.00;102243.19;5042085;28;1233;-78
2023/10/16 07:20:30;;;;;;;;;;;;;;;6.66;100.00;102243.06;5045948;28;1666;-78
2023/10/16 07:23:02;;;;;;;;;;;;;;;6.68;100.00;102236.09;5044982;28;1190;-79
2023/10/16 07:28:29;;;;;;;;;;;;;;;6.76;100.00;102244.31;5006307;28;1909;-79
2023/10/16 07:30:57;;;;;;;;;;;;;;;6.79;100.00;102248.53;5038730;28;1220;-79
2023/10/16 07:33:23;;;;;;;;;;;;;;;6.81;100.00;102241.56;5049011;28;1489;-78
2023/10/16 07:35:49;;;;;;;;;;;;;;;6.85;100.00;102254.25;5043373;28;1195;-78
2023/10/16 07:38:21;;;;;;;;;;;;;;;6.87;100.00;102256.75;5050732;28;1461;-78
2023/10/16 07:40:53;;;;;;;;;;;;;;;6.90;100.00;102257.47;5049729;28;1126;-78
2023/10/16 07:43:26;;;;;;;;;;;;;;;6.93;100.00;102247.00;5046662;28;1114;-78
2023/10/16 07:48:37;;;;;;;;;;;;;;;7.01;100.00;102243.28;5023455;28;1914;-78
2023/10/16 07:51:06;;;;;;;;;;;;;;;7.02;100.00;102244.97;5020082;28;1126;-79
2023/10/16 07:53:32;;;;;;;;;;;;;;;7.07;100.00;102238.69;5027298;28;1523;-78
2023/10/16 07:55:57;;;;;;;;;;;;;;;7.11;100.00;102239.38;5031479;28;1184;-78
2023/10/16 07:58:33;;;;;;;;;;;;;;;7.15;100.00;102236.59;5029626;28;1677;-78
2023/10/16 08:03:36;;;;;;;;;;;;;;;7.26;100.00;102249.03;5020967;28;1373;-78
2023/10/16 08:06:05;;;;;;;;;;;;;;;7.31;100.00;102239.34;5028385;28;1259;-78
2023/10/16 08:08:36;;;;;;;;;;;;;;;7.36;100.00;102241.72;5024904;28;1905;-78
2023/10/16 08:11:12;;;;;;;;;;;;;;;7.41;100.00;102248.34;5030544;28;1573;-78
2023/10/16 08:13:38;;;;;;;;;;;;;;;7.48;100.00;102242.91;5028726;28;1223;-78
2023/10/16 08:16:06;;;;;;;;;;;;;;;7.54;100.00;102243.44;5028197;28;1217;-79
2023/10/16 08:18:32;;;;;;;;;;;;;;;7.61;100.00;102244.00;5019888;28;1177;-78
2023/10/16 08:21:00;;;;;;;;;;;;;;;7.65;100.00;102241.19;5024355;28;1283;-78
2023/10/16 08:23:31;;;;;;;;;;;;;;;7.71;100.00;102245.25;5025231;28;1426;-79
2023/10/16 08:26:00;;;;;;;;;;;;;;;7.76;100.00;102238.13;5016789;28;1289;-78
2023/10/16 08:28:35;;;;;;;;;;;;;;;7.83;100.00;102242.09;5022128;28;1952;-79
2023/10/16 08:31:10;;;;;;;;;;;;;;;7.88;100.00;102237.53;5021003;28;1574;-79
2023/10/16 08:33:35;;;;;;;;;;;;;;;7.96;100.00;102239.75;5019350;28;1170;-79
2023/10/16 08:36:01;;;;;;;;;;;;;;;8.02;100.00;102246.38;5024468;28;1159;-79
2023/10/16 08:38:26;;;;;;;;;;;;;;;8.06;100.00;102245.31;5035647;28;1151;-80
2023/10/16 08:40:57;;;;;;;;;;;;;;;8.12;100.00;102245.03;5026340;28;1178;-79
2023/10/16 08:43:39;;;;;;;;;;;;;;;8.16;100.00;102246.56;5022615;28;1293;-80
2023/10/16 08:46:10;;;;;;;;;;;;;;;8.24;100.00;102245.25;5021560;28;996;-80
2023/10/16 08:48:36;;;;;;;;;;;;;;;8.31;100.00;102240.63;5025530;28;1906;-80
2023/10/16 08:51:08;;;;;;;;;;;;;;;8.37;100.00;102237.78;5029542;28;1247;-79
2023/10/16 08:53:34;;;;;;;;;;;;;;;8.47;100.00;102245.91;5023741;28;1030;-80
2023/10/16 08:56:03;;;;;;;;;;;;;;;8.54;100.00;102241.25;5020922;28;1412;-79
2023/10/16 08:58:28;;;;;;;;;;;;;;;8.61;100.00;102237.47;5021335;28;1120;-79
2023/10/16 09:00:55;;;;;;;;;;;;;;;8.67;100.00;102243.16;5023125;28;1157;-79
2023/10/16 09:03:21;;;;;;;;;;;;;;;8.74;100.00;102238.50;5027679;28;1140;-80
2023/10/16 09:05:46;;;;;;;;;;;;;;;8.80;100.00;102242.53;5025118;28;1240;-79
2023/10/16 09:08:14;;;;;;;;;;;;;;;8.87;100.00;102239.53;5024384;28;1962;-79
2023/10/16 09:10:40;;;;;;;;;;;;;;;8.94;100.00;102246.06;5019343;28;1194;-79
2023/10/16 09:13:16;;;;;;;;;;;;;;;9.00;100.00;102245.75;5026170;28;1248;-79
2023/10/16 09:15:48;;;;;;;;;;;;;;;9.09;100.00;102238.41;5025221;28;1347;-80
2023/10/16 09:18:16;;;;;;;;;;;;;;;9.17;100.00;102234.50;5024930;28;1141;-79
2023/10/16 09:20:41;;;;;;;;;;;;;;;9.23;100.00;102236.78;5024533;28;1175;-79
2023/10/16 09:23:13;;;;;;;;;;;;;;;9.30;100.00;102238.13;5020002;28;1286;-80
2023/10/16 09:25:42;;;;;;;;;;;;;;;9.36;100.00;102236.13;5024572;28;1121;-80
2023/10/16 09:28:07;;;;;;;;;;;;;;;9.37;100.00;102238.63;5027139;28;1902;-80
2023/10/16 09:30:33;;;;;;;;;;;;;;;9.39;100.00;102241.94;5020068;28;1060;-79
2023/10/16 09:32:58;;;;;;;;;;;;;;;9.39;100.00;102241.94;5021484;28;1129;-79
2023/10/16 09:35:30;;;;;;;;;;;;;;;9.42;100.00;102236.63;5019933;28;1348;-80
2023/10/16 09:38:18;;;;;;;;;;;;;;;9.43;100.00;102243.47;5021725;28;1287;-80
2023/10/16 09:40:58;;;;;;;;;;;;;;;9.50;100.00;102244.81;5022349;28;1307;-80
2023/10/16 09:43:25;;;;;;;;;;;;;;;9.53;100.00;102247.25;5020455;28;1397;-79
2023/10/16 09:46:21;;;;;;;;;;;;;;;9.57;100.00;102250.47;5021127;28;1156;-79
2023/10/16 09:48:36;;;;;;;;;;;;;;;9.62;100.00;102245.88;5027532;28;1959;-79
2023/10/16 09:51:02;;;;;;;;;;;;;;;9.70;100.00;102250.66;5028300;28;1266;-80
2023/10/16 09:53:30;;;;;;;;;;;;;;;9.77;100.00;102257.16;5025954;28;1169;-80
2023/10/16 09:55:58;;;;;;;;;;;;;;;9.82;100.00;102256.00;5016095;28;1200;-80
2023/10/16 09:58:28;;;;;;;;;;;;;;;9.88;100.00;102244.47;5023162;28;1205;-80
2023/10/16 10:01:00;;;;;;;;;;;;;;;9.95;100.00;102245.78;5023909;28;1170;-80
2023/10/16 10:03:26;;;;;;;;;;;;;;;9.97;100.00;102249.09;5027250;28;1132;-79
2023/10/16 10:08:47;;;;;;;;;;;;;;;10.01;100.00;102253.19;5024433;28;1931;-79
2023/10/16 10:11:38;;;;;;;;;;;;;;;10.08;100.00;102251.09;5023058;28;1174;-80
2023/10/16 10:14:39;;;;;;;;;;;;;;;10.13;100.00;102256.03;5022021;28;1205;-79
2023/10/16 10:17:00;;;;;;;;;;;;;;;10.17;100.00;102254.94;5024057;28;1847;-79
2023/10/16 10:19:31;;;;;;;;;;;;;;;10.21;100.00;102249.50;5021877;28;1122;-79
2023/10/16 10:21:57;;;;;;;;;;;;;;;10.30;100.00;102245.56;5017715;28;1144;-80
2023/10/16 10:24:23;;;;;;;;;;;;;;;10.33;99.30;102240.22;5034359;28;1394;-79
2023/10/16 10:26:49;;;;;;;;;;;;;;;10.37;97.75;102241.69;5027342;28;1485;-79
2023/10/16 10:29:16;;;;;;;;;;;;;;;10.43;98.23;102240.50;5020391;28;1910;-79
2023/10/16 10:31:42;;;;;;;;;;;;;;;10.55;98.78;102251.00;5023296;28;1289;-79
2023/10/16 10:34:18;;;;;;;;;;;;;;;10.65;98.38;102240.91;5027634;28;1044;-80
2023/10/16 10:36:44;;;;;;;;;;;;;;;10.74;94.84;102244.72;5029739;28;1017;-79
2023/10/16 10:41:58;;;;;;;;;;;;;;;10.80;97.80;102239.16;5042696;28;1147;-79
2023/10/16 10:44:29;;;;;;;;;;;;;;;10.80;96.60;102242.59;5042043;28;1040;-80
2023/10/16 10:46:55;;;;;;;;;;;;;;;10.80;96.62;102244.34;5052643;28;1049;-79
2023/10/16 10:49:39;;;;;;;;;;;;;;;10.83;96.46;102244.16;5046302;28;1882;-80
2023/10/16 10:52:05;;;;;;;;;;;;;;;10.85;95.61;102237.97;5045130;28;1073;-80
2023/10/16 10:54:30;;;;;;;;;;;;;;;10.91;95.96;102241.94;5043940;28;1027;-78
2023/10/16 10:56:59;;;;;;;;;;;;;;;11.03;95.67;102238.59;5034171;28;1224;-79
2023/10/16 10:59:40;;;;;;;;;;;;;;;11.03;96.54;102235.19;5031581;28;1001;-80
2023/10/16 11:04:58;;;;;;;;;;;;;;;11.13;95.23;102221.53;5019520;28;1225;-79
2023/10/16 11:07:25;;;;;;;;;;;;;;;11.17;94.82;102220.41;5028345;28;1938;-80
2023/10/16 11:09:54;;;;;;;;;;;;;;;11.27;95.40;102222.44;5022959;28;1324;-80
2023/10/16 11:12:25;;;;;;;;;;;;;;;11.32;95.49;102220.41;5025605;28;1280;-80
2023/10/16 11:14:51;;;;;;;;;;;;;;;11.43;95.07;102217.97;5025705;28;1233;-80
2023/10/16 11:17:35;;;;;;;;;;;;;;;11.52;93.47;102217.38;5024380;28;1239;-80
2023/10/16 11:20:26;;;;;;;;;;;;;;;11.59;93.01;102218.66;5036898;28;1292;-80
2023/10/16 11:22:46;;;;;;;;;;;;;;;11.67;94.03;102216.41;5021642;28;1104;-80
2023/10/16 11:25:13;;;;;;;;;;;;;;;11.71;93.13;102217.03;5021819;28;1101;-80
2023/10/16 11:27:41;;;;;;;;;;;;;;;11.74;92.46;102216.00;5030172;28;1909;-80
2023/10/16 11:30:11;;;;;;;;;;;;;;;11.74;92.71;102216.00;5025949;28;1394;-80
2023/10/16 11:32:38;;;;;;;;;;;;;;;11.77;90.41;102210.63;5024089;28;1207;-80
2023/10/16 11:35:13;;;;;;;;;;;;;;;11.76;91.58;102211.56;5025468;28;1148;-80
2023/10/16 11:37:39;;;;;;;;;;;;;;;11.81;91.48;102206.88;5022411;28;1228;-81
2023/10/16 11:40:18;;;;;;;;;;;;;;;11.84;90.74;102206.72;5025370;28;1232;-80
2023/10/16 11:42:43;;;;;;;;;;;;;;;11.85;91.55;102197.97;5021073;28;1164;-80
2023/10/16 11:45:18;;;;;;;;;;;;;;;11.87;91.28;102199.56;5026545;28;1297;-80
2023/10/16 11:47:43;;;;;;;;;;;;;;;11.94;90.45;102194.78;5039328;28;1906;-80
2023/10/16 11:50:08;;;;;;;;;;;;;;;11.97;87.97;102191.97;5027701;28;1244;-80
2023/10/16 11:52:35;;;;;;;;;;;;;;;11.99;89.38;102191.91;5026385;28;1195;-80
2023/10/16 11:55:07;;;;;;;;;;;;;;;11.99;88.82;102191.91;5023304;28;1135;-81
2023/10/16 11:57:32;;;;;;;;;;;;;;;11.97;86.63;102191.97;5028824;28;1355;-80
2023/10/16 11:59:57;;;;;;;;;;;;;;;11.98;88.66;102188.44;5029776;28;1104;-80
2023/10/16 12:02:23;;;;;;;;;;;;;;;11.99;88.08;102182.31;5024467;28;1406;-80
2023/10/16 12:04:49;;;;;;;;;;;;;;;12.01;88.36;102183.03;5020461;28;1195;-79
2023/10/16 12:07:15;;;;;;;;;;;;;;;12.06;88.00;102174.94;5025488;28;1961;-80
2023/10/16 12:09:48;;;;;;;;;;;;;;;12.06;88.54;102165.38;5022342;28;1327;-80
2023/10/16 12:12:20;;;;;;;;;;;;;;;12.05;86.13;102163.72;5026223;28;1312;-80
2023/10/16 12:14:48;;;;;;;;;;;;;;;12.05;87.10;102168.91;5022840;28;1355;-80
2023/10/16 12:17:19;;;;;;;;;;;;;;;12.04;88.17;102162.03;5035582;28;1360;-80
2023/10/16 12:19:45;;;;;;;;;;;;;;;12.05;88.32;102155.91;5022948;28;1276;-80
2023/10/16 12:22:10;;;;;;;;;;;;;;;12.07;87.87;102150.59;5024179;28;1443;-80
2023/10/16 12:24:36;;;;;;;;;;;;;;;12.08;87.85;102158.28;5025018;28;1244;-80
2023/10/16 12:27:04;;;;;;;;;;;;;;;12.07;87.45;102161.84;5033712;28;1260;-80
2023/10/16 12:29:30;;;;;;;;;;;;;;;12.10;87.32;102156.44;5020415;28;1918;-80
2023/10/16 12:31:55;;;;;;;;;;;;;;;12.09;87.21;102154.75;5022403;28;1511;-80
2023/10/16 12:34:22;;;;;;;;;;;;;;;12.12;88.10;102151.97;5022039;28;1549;-80
2023/10/16 12:36:49;;;;;;;;;;;;;;;12.14;87.43;102152.69;5014226;28;1438;-80
2023/10/16 12:39:18;;;;;;;;;;;;;;;12.15;87.05;102151.75;5028316;28;1107;-80
2023/10/16 12:41:43;;;;;;;;;;;;;;;12.16;83.67;102153.44;5020873;28;1266;-80
2023/10/16 12:44:09;;;;;;;;;;;;;;;12.14;85.41;102152.69;5023776;28;1355;-80
2023/10/16 12:46:37;;;;;;;;;;;;;;;12.14;83.29;102142.28;5025180;28;979;-80
2023/10/16 12:49:06;;;;;;;;;;;;;;;12.12;82.79;102144.16;5019691;28;1969;-80
2023/10/16 12:51:34;;;;;;;;;;;;;;;12.13;84.05;102145.81;5026737;28;1132;-80
2023/10/16 12:54:03;;;;;;;;;;;;;;;12.17;85.23;102149.88;5020549;28;1144;-80
2023/10/16 12:56:28;;;;;;;;;;;;;;;12.20;85.17;102147.06;5025235;28;1773;-80
2023/10/16 12:58:53;;;;;;;;;;;;;;;12.22;85.90;102134.81;5018649;28;1180;-80
2023/10/16 13:01:21;;;;;;;;;;;;;;;12.20;83.76;102139.25;5026110;28;1418;-80
2023/10/16 13:03:46;;;;;;;;;;;;;;;12.19;84.17;102137.59;5022728;28;1089;-80
2023/10/16 13:06:11;;;;;;;;;;;;;;;12.20;84.96;102147.06;5022044;28;1187;-80
2023/10/16 13:08:37;;;;;;;;;;;;;;;12.19;83.11;102145.41;5023951;28;1983;-80
2023/10/16 13:11:02;;;;;;;;;;;;;;;12.16;82.60;102140.44;5026554;28;1262;-80
2023/10/16 13:13:28;;;;;;;;;;;;;;;12.15;83.07;102143.94;5021255;28;1458;-80
2023/10/16 13:15:54;;;;;;;;;;;;;;;12.11;82.78;102139.91;5027583;28;1161;-81
2023/10/16 13:18:28;;;;;;;;;;;;;;;12.12;83.53;102144.16;5021952;28;1069;-80
2023/10/16 13:20:57;;;;;;;;;;;;;;;12.14;83.32;102139.69;5020146;28;1342;-80
2023/10/16 13:23:23;;;;;;;;;;;;;;;12.13;77.93;102140.63;5024926;28;1101;-80
2023/10/16 13:25:48;;;;;;;;;;;;;;;12.10;80.71;102143.44;5019806;28;1203;-80
2023/10/16 13:28:13;;;;;;;;;;;;;;;12.05;80.05;102137.72;5044140;28;1894;-79
2023/10/16 13:30:38;;;;;;;;;;;;;;;12.05;83.01;102135.13;5017137;28;1260;-80
2023/10/16 13:33:08;;;;;;;;;;;;;;;12.04;81.77;102128.22;5023534;28;1400;-79
2023/10/16 13:35:38;;;;;;;;;;;;;;;12.07;81.12;102129.78;5021093;28;1306;-79
2023/10/16 13:38:04;;;;;;;;;;;;;;;12.06;81.75;102131.56;5024615;28;1373;-79
2023/10/16 13:40:32;;;;;;;;;;;;;;;12.09;81.80;102127.91;5019590;28;1014;-79
2023/10/16 13:43:00;;;;;;;;;;;;;;;12.12;81.86;102127.72;5019749;28;1144;-80
2023/10/16 13:45:27;;;;;;;;;;;;;;;12.09;79.17;102127.91;5023254;28;1357;-79
2023/10/16 13:47:53;;;;;;;;;;;;;;;12.06;79.36;102128.97;5022863;28;1906;-79
2023/10/16 13:50:25;;;;;;;;;;;;;;;12.04;80.19;102125.63;5023761;28;1521;-80
2023/10/16 13:52:51;;;;;;;;;;;;;;;12.06;81.39;102123.75;5021908;28;1209;-79
2023/10/16 13:55:20;;;;;;;;;;;;;;;12.09;82.29;102122.72;5024281;28;1209;-79
2023/10/16 13:57:47;;;;;;;;;;;;;;;12.11;81.48;102116.50;5021566;28;1136;-79
2023/10/16 14:00:31;;;;;;;;;;;;;;;12.11;82.20;102116.50;5018853;28;1117;-80
2023/10/16 14:05:44;;;;;;;;;;;;;;;12.11;82.87;102111.28;5023770;28;1975;-80
2023/10/16 14:08:10;;;;;;;;;;;;;;;12.14;82.81;102111.06;5021245;28;1961;-79
2023/10/16 14:10:36;;;;;;;;;;;;;;;12.16;83.20;102111.81;5027102;28;1231;-80
2023/10/16 14:13:10;;;;;;;;;;;;;;;12.17;83.09;102110.88;5029264;28;1207;-79
2023/10/16 14:15:38;;;;;;;;;;;;;;;12.16;82.77;102114.41;5029553;28;1386;-78
2023/10/16 14:18:03;;;;;;;;;;;;;;;12.14;82.06;102105.88;5030085;28;1170;-79
2023/10/16 14:20:35;;;;;;;;;;;;;;;12.09;82.07;102107.94;5030870;28;1172;-79
2023/10/16 14:23:03;;;;;;;;;;;;;;;12.06;81.94;102102.13;5029047;28;1339;-79
2023/10/16 14:25:36;;;;;;;;;;;;;;;12.03;82.41;102103.16;5034618;28;1453;-79
2023/10/16 14:28:19;;;;;;;;;;;;;;;12.01;82.02;102105.03;5028451;28;1953;-79
2023/10/16 14:30:46;;;;;;;;;;;;;;;12.02;82.32;102106.69;5025734;28;1148;-79
2023/10/16 14:33:11;;;;;;;;;;;;;;;11.99;82.08;102104.31;5030468;28;1188;-79
2023/10/16 14:35:38;;;;;;;;;;;;;;;11.99;82.41;102104.31;5031525;28;1204;-79
2023/10/16 14:38:04;;;;;;;;;;;;;;;11.99;82.32;102096.53;5034528;28;1049;-79
2023/10/16 14:40:29;;;;;;;;;;;;;;;11.99;82.83;102091.31;5031365;28;1148;-79
2023/10/16 14:42:56;;;;;;;;;;;;;;;12.00;81.84;102098.19;5024984;28;1500;-79